UAL1175 KSFO-PHNL
Flight info
| Callsign | UAL1175 |
|---|---|
| Flight time | 4h 50m |
| Altitude | 34000 |
| Route | GNNRR3 BEBOP R464 BARAZ/N0477F360 R464 BITTA MAGGI3 |
| Aircraft | B77W/H-SDE1E2E3FGHIJ2J3J4J5M1RWXY/LB1D1 |
Departure
| Time | 2026-05-04 16:28 |
|---|---|
| Airport | San Francisco International Airport (KSFO) |
Arrival
| Time | 2026-05-04 21:18 |
|---|---|
| Airport | Daniel K. Inouye International Airport (PHNL) |
| Time | Latitude | Longitude | Altitude | Speed | Heading |
|---|---|---|---|---|---|
| 2026-05-04 15:32 | 37.62162 | -122.38996 | 27 ft | 0 kts | 206° |
| 2026-05-04 16:15 | 37.62192 | -122.38977 | 26 ft | 4 kts | 206° |
| 2026-05-04 16:16 | 37.62237 | -122.38956 | 26 ft | 4 kts | 160° |
| 2026-05-04 16:16 | 37.62243 | -122.39037 | 24 ft | 2 kts | 73° |
| 2026-05-04 16:17 | 37.62243 | -122.39039 | 24 ft | 0 kts | 73° |
| 2026-05-04 16:20 | 37.62259 | -122.38974 | 26 ft | 7 kts | 73° |
| 2026-05-04 16:20 | 37.62231 | -122.38837 | 27 ft | 15 kts | 117° |
| 2026-05-04 16:21 | 37.62074 | -122.38462 | 27 ft | 16 kts | 117° |
| 2026-05-04 16:22 | 37.61970 | -122.38211 | 27 ft | 16 kts | 118° |
| 2026-05-04 16:22 | 37.61818 | -122.37832 | 27 ft | 16 kts | 111° |
| 2026-05-04 16:23 | 37.61689 | -122.37441 | 26 ft | 16 kts | 117° |
| 2026-05-04 16:24 | 37.61479 | -122.36945 | 27 ft | 16 kts | 124° |
| 2026-05-04 16:25 | 37.61342 | -122.36725 | 27 ft | 16 kts | 118° |
| 2026-05-04 16:26 | 37.61132 | -122.36227 | 27 ft | 16 kts | 118° |
| 2026-05-04 16:26 | 37.61067 | -122.35936 | 27 ft | 10 kts | 51° |
| 2026-05-04 16:27 | 37.61171 | -122.35867 | 27 ft | 6 kts | 351° |
| 2026-05-04 16:28 | 37.61550 | -122.36741 | 27 ft | 121 kts | 298° |
| 2026-05-04 16:28 | 37.63292 | -122.40876 | 1116 ft | 192 kts | 298° |
| 2026-05-04 16:29 | 37.65937 | -122.46873 | 3111 ft | 225 kts | 298° |
| 2026-05-04 16:30 | 37.66859 | -122.52934 | 4427 ft | 258 kts | 251° |
| 2026-05-04 16:31 | 37.65715 | -122.57297 | 5807 ft | 270 kts | 250° |
| 2026-05-04 16:31 | 37.63908 | -122.64207 | 7923 ft | 281 kts | 251° |
| 2026-05-04 16:32 | 37.62033 | -122.71399 | 9959 ft | 294 kts | 251° |
| 2026-05-04 16:33 | 37.60705 | -122.76497 | 10581 ft | 329 kts | 251° |
| 2026-05-04 16:33 | 37.59183 | -122.82340 | 10971 ft | 370 kts | 251° |
| 2026-05-04 16:34 | 37.57529 | -122.88677 | 12086 ft | 388 kts | 251° |
| 2026-05-04 16:34 | 37.56678 | -122.91932 | 12807 ft | 393 kts | 252° |
| 2026-05-04 16:35 | 37.54062 | -123.01920 | 14872 ft | 407 kts | 252° |
| 2026-05-04 16:35 | 37.51353 | -123.12219 | 16885 ft | 419 kts | 252° |
| 2026-05-04 16:36 | 37.50430 | -123.15718 | 17538 ft | 423 kts | 252° |
| 2026-05-04 16:36 | 37.48555 | -123.22809 | 18836 ft | 431 kts | 251° |
| 2026-05-04 16:37 | 37.46628 | -123.30080 | 19881 ft | 443 kts | 252° |
| 2026-05-04 16:37 | 37.45657 | -123.33733 | 20413 ft | 449 kts | 252° |
| 2026-05-04 16:37 | 37.43649 | -123.41277 | 21499 ft | 460 kts | 252° |
| 2026-05-04 16:38 | 37.41589 | -123.48994 | 22553 ft | 470 kts | 252° |
| 2026-05-04 16:39 | 37.38402 | -123.60886 | 24025 ft | 485 kts | 252° |
| 2026-05-04 16:39 | 37.36227 | -123.68968 | 25026 ft | 491 kts | 252° |
| 2026-05-04 16:40 | 37.34021 | -123.77141 | 26021 ft | 496 kts | 252° |
| 2026-05-04 16:40 | 37.31798 | -123.85352 | 26898 ft | 503 kts | 252° |
| 2026-05-04 16:41 | 37.29524 | -123.93725 | 27788 ft | 509 kts | 252° |
| 2026-05-04 16:41 | 37.26043 | -124.06490 | 28976 ft | 520 kts | 252° |
| 2026-05-04 16:42 | 37.22500 | -124.19418 | 30384 ft | 521 kts | 251° |
| 2026-05-04 16:43 | 37.20157 | -124.27932 | 31631 ft | 510 kts | 251° |
| 2026-05-04 16:43 | 37.17886 | -124.36157 | 33020 ft | 495 kts | 251° |
| 2026-05-04 16:43 | 37.16767 | -124.40202 | 33701 ft | 488 kts | 251° |
| 2026-05-04 16:44 | 37.12644 | -124.55055 | 34057 ft | 490 kts | 251° |
| 2026-05-04 16:45 | 37.10411 | -124.63064 | 34063 ft | 486 kts | 251° |
| 2026-05-04 16:46 | 37.04833 | -124.82964 | 34072 ft | 486 kts | 251° |
| 2026-05-04 16:47 | 37.00318 | -124.98975 | 34068 ft | 489 kts | 251° |
| 2026-05-04 16:48 | 36.95926 | -125.15136 | 34083 ft | 494 kts | 252° |
| 2026-05-04 16:49 | 36.91515 | -125.31503 | 34070 ft | 499 kts | 252° |
| 2026-05-04 16:50 | 36.87025 | -125.47972 | 34072 ft | 501 kts | 252° |
| 2026-05-04 16:51 | 36.83659 | -125.60252 | 34074 ft | 500 kts | 252° |
| 2026-05-04 16:52 | 36.79151 | -125.76617 | 34055 ft | 497 kts | 252° |
| 2026-05-04 16:53 | 36.75764 | -125.88841 | 34066 ft | 497 kts | 252° |
| 2026-05-04 16:54 | 36.71228 | -126.05132 | 34069 ft | 497 kts | 252° |
| 2026-05-04 16:55 | 36.64388 | -126.29506 | 34057 ft | 499 kts | 253° |
| 2026-05-04 16:56 | 36.58563 | -126.50106 | 34071 ft | 508 kts | 253° |
| 2026-05-04 16:57 | 36.55031 | -126.62511 | 34070 ft | 510 kts | 253° |
| 2026-05-04 16:58 | 36.50274 | -126.79132 | 34058 ft | 509 kts | 253° |
| 2026-05-04 17:00 | 36.43116 | -127.03940 | 34060 ft | 508 kts | 253° |
| 2026-05-04 17:01 | 36.37108 | -127.24549 | 34049 ft | 508 kts | 253° |
| 2026-05-04 17:02 | 36.32295 | -127.40965 | 34063 ft | 508 kts | 253° |
| 2026-05-04 17:03 | 36.28652 | -127.53322 | 34054 ft | 509 kts | 253° |
| 2026-05-04 17:03 | 36.24996 | -127.65673 | 34065 ft | 509 kts | 253° |
| 2026-05-04 17:04 | 36.20094 | -127.82143 | 34078 ft | 510 kts | 253° |
| 2026-05-04 17:05 | 36.15157 | -127.98638 | 34040 ft | 511 kts | 253° |
| 2026-05-04 17:06 | 36.11432 | -128.11017 | 34063 ft | 512 kts | 253° |
| 2026-05-04 17:07 | 36.08112 | -128.22005 | 34047 ft | 513 kts | 253° |
| 2026-05-04 17:07 | 36.05201 | -128.31607 | 34056 ft | 513 kts | 253° |
| 2026-05-04 17:08 | 36.01430 | -128.43996 | 34064 ft | 514 kts | 253° |
| 2026-05-04 17:09 | 35.98906 | -128.52258 | 34062 ft | 514 kts | 253° |
| 2026-05-04 17:09 | 35.96377 | -128.60513 | 34063 ft | 514 kts | 253° |
| 2026-05-04 17:10 | 35.90029 | -128.81128 | 34067 ft | 513 kts | 253° |
| 2026-05-04 17:11 | 35.87486 | -128.89345 | 34041 ft | 513 kts | 253° |
| 2026-05-04 17:12 | 35.83670 | -129.01632 | 34062 ft | 511 kts | 253° |
| 2026-05-04 17:13 | 35.77323 | -129.21958 | 34075 ft | 509 kts | 253° |
| 2026-05-04 17:14 | 35.72222 | -129.38189 | 34059 ft | 507 kts | 253° |
| 2026-05-04 17:15 | 35.68393 | -129.50313 | 34069 ft | 506 kts | 253° |
| 2026-05-04 17:16 | 35.63276 | -129.66441 | 34068 ft | 505 kts | 253° |
| 2026-05-04 17:17 | 35.58166 | -129.82458 | 34063 ft | 504 kts | 253° |
| 2026-05-04 17:18 | 35.53036 | -129.98450 | 34080 ft | 502 kts | 253° |
| 2026-05-04 17:19 | 35.47903 | -130.14365 | 34084 ft | 500 kts | 252° |
| 2026-05-04 17:20 | 35.42783 | -130.30155 | 34080 ft | 499 kts | 252° |
| 2026-05-04 17:20 | 35.38930 | -130.41987 | 34102 ft | 498 kts | 252° |
| 2026-05-04 17:21 | 35.33778 | -130.57730 | 34092 ft | 497 kts | 252° |
| 2026-05-04 17:22 | 35.31198 | -130.65586 | 34105 ft | 497 kts | 252° |
| 2026-05-04 17:23 | 35.26019 | -130.81291 | 34101 ft | 498 kts | 252° |
| 2026-05-04 17:24 | 35.22118 | -130.93065 | 34093 ft | 498 kts | 252° |
| 2026-05-04 17:25 | 35.16908 | -131.08718 | 34115 ft | 496 kts | 252° |
| 2026-05-04 17:26 | 35.11711 | -131.24252 | 34119 ft | 494 kts | 252° |
| 2026-05-04 17:27 | 35.05212 | -131.43570 | 34120 ft | 490 kts | 252° |
| 2026-05-04 17:28 | 35.00026 | -131.58901 | 34119 ft | 487 kts | 252° |
| 2026-05-04 17:29 | 34.92265 | -131.81701 | 34131 ft | 484 kts | 251° |
| 2026-05-04 17:31 | 34.85814 | -132.00523 | 34133 ft | 482 kts | 251° |
| 2026-05-04 17:32 | 34.79332 | -132.19322 | 34149 ft | 481 kts | 251° |
| 2026-05-04 17:33 | 34.74578 | -132.33038 | 34159 ft | 480 kts | 251° |
| 2026-05-04 17:34 | 34.68957 | -132.49179 | 34162 ft | 479 kts | 252° |
| 2026-05-04 17:35 | 34.62862 | -132.66586 | 34154 ft | 478 kts | 252° |
| 2026-05-04 17:36 | 34.60252 | -132.74013 | 34165 ft | 478 kts | 252° |
| 2026-05-04 17:36 | 34.57652 | -132.81394 | 34164 ft | 478 kts | 252° |
| 2026-05-04 17:37 | 34.55032 | -132.88812 | 34187 ft | 478 kts | 252° |
| 2026-05-04 17:37 | 34.52406 | -132.96229 | 34176 ft | 478 kts | 252° |
| 2026-05-04 17:38 | 34.49768 | -133.03656 | 34174 ft | 478 kts | 252° |
| 2026-05-04 17:38 | 34.47136 | -133.11062 | 34180 ft | 478 kts | 252° |
| 2026-05-04 17:39 | 34.43199 | -133.22106 | 34183 ft | 478 kts | 252° |
| 2026-05-04 17:39 | 34.40556 | -133.29491 | 34175 ft | 477 kts | 253° |
| 2026-05-04 17:40 | 34.37915 | -133.36859 | 34180 ft | 477 kts | 253° |
| 2026-05-04 17:40 | 34.35271 | -133.44214 | 34172 ft | 476 kts | 254° |
| 2026-05-04 17:41 | 34.32628 | -133.51549 | 34187 ft | 475 kts | 255° |
| 2026-05-04 17:41 | 34.29986 | -133.58872 | 34194 ft | 475 kts | 255° |
| 2026-05-04 17:42 | 34.27337 | -133.66193 | 34176 ft | 474 kts | 256° |
| 2026-05-04 17:42 | 34.24691 | -133.73489 | 34185 ft | 474 kts | 256° |
| 2026-05-04 17:43 | 34.22041 | -133.80782 | 34206 ft | 474 kts | 256° |
| 2026-05-04 17:43 | 34.19387 | -133.88067 | 34198 ft | 473 kts | 256° |
| 2026-05-04 17:44 | 34.16730 | -133.95344 | 34207 ft | 473 kts | 256° |
| 2026-05-04 17:44 | 34.14073 | -134.02606 | 34208 ft | 472 kts | 256° |
| 2026-05-04 17:45 | 34.12759 | -134.06192 | 34309 ft | 472 kts | 256° |
| 2026-05-04 17:45 | 34.11431 | -134.09811 | 34451 ft | 471 kts | 256° |
| 2026-05-04 17:45 | 34.10103 | -134.13427 | 34588 ft | 471 kts | 256° |
| 2026-05-04 17:45 | 34.08775 | -134.17037 | 34727 ft | 470 kts | 256° |
| 2026-05-04 17:46 | 34.07448 | -134.20642 | 34862 ft | 469 kts | 256° |
| 2026-05-04 17:46 | 34.06124 | -134.24236 | 34978 ft | 469 kts | 256° |
| 2026-05-04 17:46 | 34.04801 | -134.27824 | 35112 ft | 468 kts | 256° |
| 2026-05-04 17:46 | 34.03479 | -134.31406 | 35261 ft | 467 kts | 256° |
| 2026-05-04 17:47 | 34.02158 | -134.34977 | 35405 ft | 466 kts | 255° |
| 2026-05-04 17:47 | 34.00837 | -134.38547 | 35545 ft | 465 kts | 255° |
| 2026-05-04 17:47 | 33.99515 | -134.42112 | 35681 ft | 465 kts | 255° |
| 2026-05-04 17:47 | 33.98195 | -134.45669 | 35803 ft | 464 kts | 255° |
| 2026-05-04 17:48 | 33.96897 | -134.49165 | 35946 ft | 463 kts | 255° |
| 2026-05-04 17:48 | 33.95581 | -134.52705 | 36082 ft | 463 kts | 255° |
| 2026-05-04 17:48 | 33.92947 | -134.59789 | 36198 ft | 463 kts | 255° |
| 2026-05-04 17:49 | 33.90313 | -134.66853 | 36226 ft | 462 kts | 255° |
| 2026-05-04 17:49 | 33.87678 | -134.73909 | 36231 ft | 462 kts | 255° |
| 2026-05-04 17:50 | 33.85039 | -134.80958 | 36236 ft | 462 kts | 254° |
| 2026-05-04 17:50 | 33.82391 | -134.88015 | 36234 ft | 462 kts | 254° |
| 2026-05-04 17:51 | 33.79744 | -134.95056 | 36237 ft | 462 kts | 254° |
| 2026-05-04 17:51 | 33.77088 | -135.02104 | 36220 ft | 462 kts | 254° |
| 2026-05-04 17:52 | 33.74432 | -135.09137 | 36238 ft | 462 kts | 254° |
| 2026-05-04 17:52 | 33.71774 | -135.16161 | 36240 ft | 462 kts | 254° |
| 2026-05-04 17:53 | 33.69110 | -135.23186 | 36241 ft | 462 kts | 253° |
| 2026-05-04 17:53 | 33.66440 | -135.30211 | 36235 ft | 462 kts | 253° |
| 2026-05-04 17:54 | 33.63782 | -135.37189 | 36244 ft | 462 kts | 253° |
| 2026-05-04 17:54 | 33.61104 | -135.44208 | 36226 ft | 463 kts | 253° |
| 2026-05-04 17:55 | 33.58421 | -135.51224 | 36250 ft | 463 kts | 253° |
| 2026-05-04 17:55 | 33.55732 | -135.58241 | 36229 ft | 463 kts | 253° |
| 2026-05-04 17:56 | 33.53040 | -135.65249 | 36233 ft | 463 kts | 253° |
| 2026-05-04 17:56 | 33.50344 | -135.72254 | 36251 ft | 463 kts | 252° |
| 2026-05-04 17:57 | 33.47646 | -135.79251 | 36235 ft | 462 kts | 252° |
| 2026-05-04 17:57 | 33.44944 | -135.86242 | 36248 ft | 462 kts | 252° |
| 2026-05-04 17:58 | 33.42240 | -135.93224 | 36257 ft | 462 kts | 252° |
| 2026-05-04 17:58 | 33.39554 | -136.00146 | 36241 ft | 462 kts | 252° |
| 2026-05-04 17:59 | 33.36846 | -136.07108 | 36255 ft | 461 kts | 252° |
| 2026-05-04 18:00 | 33.32780 | -136.17539 | 36254 ft | 461 kts | 251° |
| 2026-05-04 18:00 | 33.30063 | -136.24490 | 36260 ft | 461 kts | 251° |
| 2026-05-04 18:01 | 33.27348 | -136.31423 | 36269 ft | 461 kts | 251° |
| 2026-05-04 18:01 | 33.24630 | -136.38350 | 36250 ft | 460 kts | 251° |
| 2026-05-04 18:02 | 33.20544 | -136.48733 | 36264 ft | 460 kts | 251° |
| 2026-05-04 18:02 | 33.17838 | -136.55593 | 36267 ft | 460 kts | 251° |
| 2026-05-04 18:03 | 33.15114 | -136.62487 | 36263 ft | 459 kts | 251° |
| 2026-05-04 18:03 | 33.12386 | -136.69374 | 36267 ft | 459 kts | 251° |
| 2026-05-04 18:04 | 33.09657 | -136.76252 | 36265 ft | 459 kts | 251° |
| 2026-05-04 18:05 | 33.05555 | -136.86564 | 36276 ft | 459 kts | 250° |
| 2026-05-04 18:05 | 33.02817 | -136.93429 | 36274 ft | 459 kts | 250° |
| 2026-05-04 18:06 | 32.98700 | -137.03727 | 36270 ft | 458 kts | 250° |
| 2026-05-04 18:06 | 32.95967 | -137.10544 | 36275 ft | 458 kts | 250° |
| 2026-05-04 18:07 | 32.93219 | -137.17387 | 36277 ft | 458 kts | 250° |
| 2026-05-04 18:07 | 32.90450 | -137.24269 | 36278 ft | 458 kts | 250° |
| 2026-05-04 18:08 | 32.87711 | -137.31062 | 36272 ft | 458 kts | 250° |
| 2026-05-04 18:08 | 32.84954 | -137.37888 | 36279 ft | 458 kts | 250° |
| 2026-05-04 18:09 | 32.79433 | -137.51512 | 36283 ft | 457 kts | 249° |
| 2026-05-04 18:10 | 32.76670 | -137.58313 | 36283 ft | 457 kts | 249° |
| 2026-05-04 18:10 | 32.73905 | -137.65104 | 36282 ft | 457 kts | 249° |
| 2026-05-04 18:11 | 32.71134 | -137.71896 | 36287 ft | 456 kts | 249° |
| 2026-05-04 18:11 | 32.68362 | -137.78678 | 36282 ft | 456 kts | 249° |
| 2026-05-04 18:12 | 32.65589 | -137.85449 | 36284 ft | 456 kts | 249° |
| 2026-05-04 18:12 | 32.62811 | -137.92218 | 36291 ft | 456 kts | 249° |
| 2026-05-04 18:13 | 32.60033 | -137.98977 | 36297 ft | 456 kts | 249° |
| 2026-05-04 18:14 | 32.55866 | -138.09088 | 36285 ft | 455 kts | 249° |
| 2026-05-04 18:14 | 32.53084 | -138.15823 | 36284 ft | 454 kts | 249° |
| 2026-05-04 18:15 | 32.47536 | -138.29216 | 36294 ft | 454 kts | 248° |
| 2026-05-04 18:16 | 32.44751 | -138.35918 | 36300 ft | 453 kts | 248° |
| 2026-05-04 18:16 | 32.41967 | -138.42607 | 36298 ft | 453 kts | 248° |
| 2026-05-04 18:17 | 32.37782 | -138.52639 | 36289 ft | 453 kts | 248° |
| 2026-05-04 18:18 | 32.33592 | -138.62653 | 36299 ft | 452 kts | 248° |
| 2026-05-04 18:18 | 32.30794 | -138.69325 | 36297 ft | 452 kts | 247° |
| 2026-05-04 18:19 | 32.26597 | -138.79308 | 36295 ft | 452 kts | 247° |
| 2026-05-04 18:19 | 32.23812 | -138.85920 | 36305 ft | 452 kts | 247° |
| 2026-05-04 18:20 | 32.21006 | -138.92568 | 36304 ft | 452 kts | 247° |
| 2026-05-04 18:20 | 32.18196 | -138.99213 | 36302 ft | 452 kts | 247° |
| 2026-05-04 18:21 | 32.15838 | -139.04778 | 36296 ft | 452 kts | 247° |
| 2026-05-04 18:21 | 32.13022 | -139.11416 | 36303 ft | 452 kts | 247° |
| 2026-05-04 18:22 | 32.10201 | -139.18051 | 36305 ft | 452 kts | 247° |
| 2026-05-04 18:22 | 32.07396 | -139.24637 | 36304 ft | 452 kts | 247° |
| 2026-05-04 18:23 | 32.04570 | -139.31259 | 36300 ft | 452 kts | 246° |
| 2026-05-04 18:23 | 32.01739 | -139.37882 | 36308 ft | 452 kts | 246° |
| 2026-05-04 18:24 | 31.98908 | -139.44492 | 36306 ft | 452 kts | 246° |
| 2026-05-04 18:24 | 31.96075 | -139.51096 | 36307 ft | 451 kts | 246° |
| 2026-05-04 18:25 | 31.93240 | -139.57692 | 36306 ft | 451 kts | 246° |
| 2026-05-04 18:25 | 31.90404 | -139.64278 | 36310 ft | 450 kts | 246° |
| 2026-05-04 18:26 | 31.87586 | -139.70812 | 36309 ft | 450 kts | 246° |
| 2026-05-04 18:26 | 31.84749 | -139.77376 | 36310 ft | 450 kts | 246° |
| 2026-05-04 18:27 | 31.81906 | -139.83942 | 36309 ft | 449 kts | 246° |
| 2026-05-04 18:27 | 31.79065 | -139.90492 | 36313 ft | 449 kts | 246° |
| 2026-05-04 18:28 | 31.76223 | -139.97034 | 36314 ft | 449 kts | 246° |
| 2026-05-04 18:28 | 31.73398 | -140.03524 | 36312 ft | 449 kts | 246° |
| 2026-05-04 18:29 | 31.70550 | -140.10056 | 36312 ft | 449 kts | 246° |
| 2026-05-04 18:29 | 31.67704 | -140.16572 | 36312 ft | 449 kts | 246° |
| 2026-05-04 18:30 | 31.63427 | -140.26341 | 36314 ft | 448 kts | 245° |
| 2026-05-04 18:31 | 31.60577 | -140.32837 | 36302 ft | 447 kts | 246° |
| 2026-05-04 18:31 | 31.57725 | -140.39324 | 36318 ft | 447 kts | 245° |
| 2026-05-04 18:32 | 31.54871 | -140.45807 | 36327 ft | 447 kts | 245° |
| 2026-05-04 18:32 | 31.52016 | -140.52281 | 36311 ft | 446 kts | 245° |
| 2026-05-04 18:33 | 31.49180 | -140.58699 | 36300 ft | 446 kts | 245° |
| 2026-05-04 18:33 | 31.46325 | -140.65149 | 36321 ft | 446 kts | 245° |
| 2026-05-04 18:34 | 31.43467 | -140.71596 | 36313 ft | 446 kts | 245° |
| 2026-05-04 18:34 | 31.40608 | -140.78031 | 36315 ft | 445 kts | 245° |
| 2026-05-04 18:35 | 31.37748 | -140.84461 | 36312 ft | 445 kts | 245° |
| 2026-05-04 18:35 | 31.34887 | -140.90879 | 36322 ft | 444 kts | 245° |
| 2026-05-04 18:36 | 31.32026 | -140.97289 | 36311 ft | 444 kts | 245° |
| 2026-05-04 18:36 | 31.29164 | -141.03689 | 36317 ft | 444 kts | 245° |
| 2026-05-04 18:37 | 31.26298 | -141.10086 | 36312 ft | 444 kts | 245° |
| 2026-05-04 18:37 | 31.23430 | -141.16479 | 36311 ft | 443 kts | 245° |
| 2026-05-04 18:38 | 31.20582 | -141.22817 | 36317 ft | 444 kts | 245° |
| 2026-05-04 18:38 | 31.17709 | -141.29199 | 36313 ft | 444 kts | 245° |
| 2026-05-04 18:39 | 31.14826 | -141.35580 | 36320 ft | 444 kts | 244° |
| 2026-05-04 18:39 | 31.11939 | -141.41957 | 36310 ft | 444 kts | 245° |
| 2026-05-04 18:40 | 31.09052 | -141.48326 | 36319 ft | 444 kts | 245° |
| 2026-05-04 18:40 | 31.06161 | -141.54695 | 36318 ft | 444 kts | 244° |
| 2026-05-04 18:41 | 31.03267 | -141.61060 | 36320 ft | 444 kts | 244° |
| 2026-05-04 18:41 | 31.00370 | -141.67421 | 36305 ft | 444 kts | 244° |
| 2026-05-04 18:42 | 30.97473 | -141.73773 | 36314 ft | 444 kts | 244° |
| 2026-05-04 18:42 | 30.94573 | -141.80120 | 36316 ft | 444 kts | 244° |
| 2026-05-04 18:43 | 30.91673 | -141.86456 | 36318 ft | 443 kts | 244° |
| 2026-05-04 18:43 | 30.88770 | -141.92786 | 36307 ft | 443 kts | 244° |
| 2026-05-04 18:44 | 30.85869 | -141.99103 | 36318 ft | 442 kts | 244° |
| 2026-05-04 18:44 | 30.82964 | -142.05420 | 36321 ft | 442 kts | 244° |
| 2026-05-04 18:45 | 30.80075 | -142.11691 | 36317 ft | 442 kts | 244° |
| 2026-05-04 18:45 | 30.77164 | -142.17997 | 36315 ft | 442 kts | 244° |
| 2026-05-04 18:46 | 30.74256 | -142.24288 | 36314 ft | 442 kts | 244° |
| 2026-05-04 18:46 | 30.71342 | -142.30581 | 36326 ft | 442 kts | 244° |
| 2026-05-04 18:47 | 30.68428 | -142.36864 | 36316 ft | 441 kts | 244° |
| 2026-05-04 18:47 | 30.65511 | -142.43142 | 36315 ft | 441 kts | 244° |
| 2026-05-04 18:48 | 30.62596 | -142.49408 | 36304 ft | 441 kts | 244° |
| 2026-05-04 18:48 | 30.59678 | -142.55669 | 36324 ft | 440 kts | 244° |
| 2026-05-04 18:49 | 30.56764 | -142.61911 | 36315 ft | 440 kts | 244° |
| 2026-05-04 18:49 | 30.53864 | -142.68112 | 36318 ft | 440 kts | 244° |
| 2026-05-04 18:50 | 30.50947 | -142.74340 | 36317 ft | 439 kts | 244° |
| 2026-05-04 18:50 | 30.48030 | -142.80559 | 36321 ft | 439 kts | 243° |
| 2026-05-04 18:51 | 30.45112 | -142.86769 | 36311 ft | 438 kts | 243° |
| 2026-05-04 18:51 | 30.42200 | -142.92957 | 36315 ft | 437 kts | 243° |
| 2026-05-04 18:52 | 30.39291 | -142.99128 | 36319 ft | 436 kts | 243° |
| 2026-05-04 18:52 | 30.36385 | -143.05283 | 36298 ft | 435 kts | 243° |
| 2026-05-04 18:53 | 30.33480 | -143.11427 | 36317 ft | 435 kts | 243° |
| 2026-05-04 18:53 | 30.30571 | -143.17568 | 36318 ft | 435 kts | 243° |
| 2026-05-04 18:54 | 30.27662 | -143.23701 | 36318 ft | 435 kts | 243° |
| 2026-05-04 18:54 | 30.24768 | -143.29793 | 36321 ft | 435 kts | 243° |
| 2026-05-04 18:55 | 30.21854 | -143.35916 | 36306 ft | 434 kts | 243° |
| 2026-05-04 18:55 | 30.17477 | -143.45096 | 36313 ft | 434 kts | 243° |
| 2026-05-04 18:56 | 30.14558 | -143.51207 | 36313 ft | 434 kts | 243° |
| 2026-05-04 18:56 | 30.11633 | -143.57321 | 36313 ft | 435 kts | 243° |
| 2026-05-04 18:57 | 30.08707 | -143.63426 | 36300 ft | 435 kts | 243° |
| 2026-05-04 18:57 | 30.05775 | -143.69535 | 36315 ft | 435 kts | 243° |
| 2026-05-04 18:58 | 30.02839 | -143.75643 | 36326 ft | 435 kts | 243° |
| 2026-05-04 18:58 | 29.99896 | -143.81756 | 36314 ft | 435 kts | 243° |
| 2026-05-04 18:59 | 29.96953 | -143.87858 | 36310 ft | 435 kts | 243° |
| 2026-05-04 18:59 | 29.94028 | -143.93915 | 36300 ft | 435 kts | 243° |
| 2026-05-04 19:00 | 29.91064 | -144.00044 | 36319 ft | 435 kts | 243° |
| 2026-05-04 19:00 | 29.88137 | -144.06084 | 36310 ft | 435 kts | 243° |
| 2026-05-04 19:01 | 29.85189 | -144.12162 | 36308 ft | 434 kts | 243° |
| 2026-05-04 19:01 | 29.82237 | -144.18235 | 36307 ft | 434 kts | 243° |
| 2026-05-04 19:02 | 29.79284 | -144.24303 | 36307 ft | 434 kts | 243° |
| 2026-05-04 19:02 | 29.76328 | -144.30369 | 36308 ft | 434 kts | 243° |
| 2026-05-04 19:03 | 29.73367 | -144.36435 | 36309 ft | 434 kts | 243° |
| 2026-05-04 19:03 | 29.70404 | -144.42496 | 36310 ft | 434 kts | 243° |
| 2026-05-04 19:04 | 29.67443 | -144.48543 | 36304 ft | 434 kts | 243° |
| 2026-05-04 19:04 | 29.64480 | -144.54584 | 36308 ft | 434 kts | 243° |
| 2026-05-04 19:05 | 29.61527 | -144.60597 | 36308 ft | 434 kts | 243° |
| 2026-05-04 19:05 | 29.58558 | -144.66634 | 36309 ft | 434 kts | 242° |
| 2026-05-04 19:06 | 29.55582 | -144.72676 | 36307 ft | 434 kts | 242° |
| 2026-05-04 19:06 | 29.52602 | -144.78715 | 36294 ft | 434 kts | 242° |
| 2026-05-04 19:07 | 29.49622 | -144.84745 | 36304 ft | 434 kts | 242° |
| 2026-05-04 19:07 | 29.46638 | -144.90777 | 36300 ft | 434 kts | 242° |
| 2026-05-04 19:08 | 29.44155 | -144.95788 | 36301 ft | 435 kts | 242° |
| 2026-05-04 19:08 | 29.41164 | -145.01815 | 36305 ft | 435 kts | 242° |
| 2026-05-04 19:09 | 29.38169 | -145.07842 | 36298 ft | 435 kts | 242° |
| 2026-05-04 19:09 | 29.35171 | -145.13867 | 36298 ft | 435 kts | 242° |
| 2026-05-04 19:10 | 29.32677 | -145.18870 | 36296 ft | 435 kts | 242° |
| 2026-05-04 19:10 | 29.29167 | -145.25902 | 36297 ft | 435 kts | 242° |
| 2026-05-04 19:11 | 29.26162 | -145.31914 | 36294 ft | 435 kts | 242° |
| 2026-05-04 19:11 | 29.23149 | -145.37934 | 36296 ft | 435 kts | 242° |
| 2026-05-04 19:12 | 29.18628 | -145.46947 | 36292 ft | 435 kts | 242° |
| 2026-05-04 19:13 | 29.15610 | -145.52953 | 36296 ft | 435 kts | 242° |
| 2026-05-04 19:13 | 29.12585 | -145.58963 | 36294 ft | 436 kts | 242° |
| 2026-05-04 19:14 | 29.09556 | -145.64973 | 36295 ft | 436 kts | 242° |
| 2026-05-04 19:14 | 29.06542 | -145.70946 | 36292 ft | 436 kts | 242° |
| 2026-05-04 19:15 | 29.03503 | -145.76957 | 36292 ft | 437 kts | 242° |
| 2026-05-04 19:15 | 29.00462 | -145.82964 | 36292 ft | 437 kts | 242° |
| 2026-05-04 19:16 | 28.97416 | -145.88974 | 36292 ft | 437 kts | 242° |
| 2026-05-04 19:16 | 28.94366 | -145.94981 | 36291 ft | 437 kts | 242° |
| 2026-05-04 19:17 | 28.91315 | -146.00982 | 36271 ft | 437 kts | 242° |
| 2026-05-04 19:17 | 28.88258 | -146.06984 | 36281 ft | 437 kts | 242° |
| 2026-05-04 19:18 | 28.85219 | -146.12945 | 36289 ft | 437 kts | 242° |
| 2026-05-04 19:18 | 28.82157 | -146.18940 | 36288 ft | 437 kts | 242° |
| 2026-05-04 19:19 | 28.79094 | -146.24930 | 36284 ft | 437 kts | 242° |
| 2026-05-04 19:19 | 28.76026 | -146.30921 | 36281 ft | 438 kts | 242° |
| 2026-05-04 19:20 | 28.72953 | -146.36911 | 36282 ft | 438 kts | 242° |
| 2026-05-04 19:20 | 28.69877 | -146.42901 | 36281 ft | 438 kts | 242° |
| 2026-05-04 19:21 | 28.66796 | -146.48890 | 36280 ft | 438 kts | 242° |
| 2026-05-04 19:21 | 28.63708 | -146.54885 | 36279 ft | 439 kts | 242° |
| 2026-05-04 19:22 | 28.60618 | -146.60875 | 36262 ft | 439 kts | 242° |
| 2026-05-04 19:22 | 28.57522 | -146.66868 | 36282 ft | 439 kts | 242° |
| 2026-05-04 19:23 | 28.54422 | -146.72861 | 36285 ft | 439 kts | 242° |
| 2026-05-04 19:23 | 28.51320 | -146.78848 | 36283 ft | 440 kts | 242° |
| 2026-05-04 19:24 | 28.48233 | -146.84797 | 36271 ft | 440 kts | 242° |
| 2026-05-04 19:24 | 28.45121 | -146.90786 | 36288 ft | 440 kts | 242° |
| 2026-05-04 19:25 | 28.42006 | -146.96773 | 36277 ft | 440 kts | 242° |
| 2026-05-04 19:25 | 28.38887 | -147.02759 | 36275 ft | 441 kts | 242° |
| 2026-05-04 19:26 | 28.35762 | -147.08749 | 36280 ft | 441 kts | 241° |
| 2026-05-04 19:26 | 28.32631 | -147.14739 | 36278 ft | 441 kts | 242° |
| 2026-05-04 19:27 | 28.29500 | -147.20724 | 36282 ft | 441 kts | 242° |
| 2026-05-04 19:27 | 28.26365 | -147.26706 | 36260 ft | 441 kts | 241° |
| 2026-05-04 19:28 | 28.23229 | -147.32681 | 36266 ft | 441 kts | 241° |
| 2026-05-04 19:28 | 28.20088 | -147.38659 | 36272 ft | 441 kts | 242° |
| 2026-05-04 19:29 | 28.16964 | -147.44594 | 36264 ft | 442 kts | 241° |
| 2026-05-04 19:29 | 28.13812 | -147.50576 | 36266 ft | 442 kts | 241° |
| 2026-05-04 19:30 | 28.10657 | -147.56554 | 36254 ft | 442 kts | 241° |
| 2026-05-04 19:30 | 28.07502 | -147.62525 | 36262 ft | 442 kts | 241° |
| 2026-05-04 19:31 | 28.04343 | -147.68493 | 36273 ft | 442 kts | 241° |
| 2026-05-04 19:31 | 28.01176 | -147.74470 | 36266 ft | 443 kts | 241° |
| 2026-05-04 19:32 | 27.98007 | -147.80441 | 36265 ft | 443 kts | 241° |
| 2026-05-04 19:32 | 27.94833 | -147.86415 | 36252 ft | 443 kts | 241° |
| 2026-05-04 19:33 | 27.91654 | -147.92392 | 36258 ft | 443 kts | 241° |
| 2026-05-04 19:33 | 27.88495 | -147.98319 | 36264 ft | 443 kts | 241° |
| 2026-05-04 19:34 | 27.85309 | -148.04281 | 36264 ft | 443 kts | 241° |
| 2026-05-04 19:34 | 27.82117 | -148.10248 | 36263 ft | 444 kts | 241° |
| 2026-05-04 19:35 | 27.78922 | -148.16215 | 36264 ft | 444 kts | 241° |
| 2026-05-04 19:35 | 27.75725 | -148.22178 | 36257 ft | 444 kts | 241° |
| 2026-05-04 19:36 | 27.72525 | -148.28139 | 36264 ft | 444 kts | 241° |
| 2026-05-04 19:36 | 27.69319 | -148.34103 | 36262 ft | 445 kts | 241° |
| 2026-05-04 19:37 | 27.66108 | -148.40066 | 36257 ft | 445 kts | 241° |
| 2026-05-04 19:37 | 27.62893 | -148.46031 | 36259 ft | 445 kts | 241° |
| 2026-05-04 19:38 | 27.59671 | -148.51998 | 36244 ft | 445 kts | 241° |
| 2026-05-04 19:38 | 27.56449 | -148.57958 | 36256 ft | 445 kts | 241° |
| 2026-05-04 19:39 | 27.53224 | -148.63918 | 36252 ft | 445 kts | 241° |
| 2026-05-04 19:39 | 27.50009 | -148.69848 | 36252 ft | 446 kts | 241° |
| 2026-05-04 19:40 | 27.46778 | -148.75801 | 36256 ft | 446 kts | 241° |
| 2026-05-04 19:40 | 27.43542 | -148.81754 | 36252 ft | 446 kts | 241° |
| 2026-05-04 19:41 | 27.40304 | -148.87703 | 36256 ft | 446 kts | 241° |
| 2026-05-04 19:41 | 27.37064 | -148.93648 | 36255 ft | 446 kts | 241° |
| 2026-05-04 19:42 | 27.33818 | -148.99595 | 36253 ft | 445 kts | 241° |
| 2026-05-04 19:42 | 27.30571 | -149.05536 | 36253 ft | 445 kts | 241° |
| 2026-05-04 19:43 | 27.27326 | -149.11466 | 36255 ft | 445 kts | 241° |
| 2026-05-04 19:43 | 27.24075 | -149.17399 | 36241 ft | 445 kts | 241° |
| 2026-05-04 19:44 | 27.20825 | -149.23321 | 36251 ft | 445 kts | 241° |
| 2026-05-04 19:44 | 27.17592 | -149.29205 | 36255 ft | 446 kts | 241° |
| 2026-05-04 19:45 | 27.14331 | -149.35132 | 36256 ft | 446 kts | 240° |
| 2026-05-04 19:45 | 27.11064 | -149.41061 | 36252 ft | 446 kts | 240° |
| 2026-05-04 19:46 | 27.07792 | -149.46992 | 36253 ft | 447 kts | 240° |
| 2026-05-04 19:46 | 27.04517 | -149.52919 | 36247 ft | 447 kts | 240° |
| 2026-05-04 19:47 | 27.01243 | -149.58837 | 36252 ft | 447 kts | 240° |
| 2026-05-04 19:47 | 26.97964 | -149.64757 | 36255 ft | 447 kts | 240° |
| 2026-05-04 19:48 | 26.94681 | -149.70677 | 36245 ft | 447 kts | 240° |
| 2026-05-04 19:48 | 26.91393 | -149.76596 | 36247 ft | 447 kts | 240° |
| 2026-05-04 19:49 | 26.88105 | -149.82509 | 36232 ft | 447 kts | 240° |
| 2026-05-04 19:49 | 26.84814 | -149.88418 | 36247 ft | 447 kts | 240° |
| 2026-05-04 19:50 | 26.81545 | -149.94280 | 36247 ft | 447 kts | 240° |
| 2026-05-04 19:50 | 26.78247 | -150.00187 | 36243 ft | 447 kts | 240° |
| 2026-05-04 19:51 | 26.74948 | -150.06086 | 36248 ft | 447 kts | 240° |
| 2026-05-04 19:51 | 26.71646 | -150.11984 | 36245 ft | 447 kts | 240° |
| 2026-05-04 19:52 | 26.68342 | -150.17879 | 36250 ft | 447 kts | 240° |
| 2026-05-04 19:52 | 26.65034 | -150.23772 | 36241 ft | 447 kts | 240° |
| 2026-05-04 19:53 | 26.61724 | -150.29662 | 36238 ft | 447 kts | 240° |
| 2026-05-04 19:53 | 26.58409 | -150.35551 | 36234 ft | 447 kts | 240° |
| 2026-05-04 19:54 | 26.55093 | -150.41436 | 36249 ft | 447 kts | 240° |
| 2026-05-04 19:54 | 26.51771 | -150.47323 | 36252 ft | 447 kts | 240° |
| 2026-05-04 19:55 | 26.48453 | -150.53196 | 36235 ft | 447 kts | 240° |
| 2026-05-04 19:55 | 26.45154 | -150.59027 | 36239 ft | 447 kts | 240° |
| 2026-05-04 19:56 | 26.41831 | -150.64893 | 36239 ft | 447 kts | 240° |
| 2026-05-04 19:56 | 26.39042 | -150.69810 | 36240 ft | 447 kts | 240° |
| 2026-05-04 19:57 | 26.35716 | -150.75668 | 36237 ft | 447 kts | 240° |
| 2026-05-04 19:57 | 26.32405 | -150.81491 | 36237 ft | 447 kts | 240° |
| 2026-05-04 19:58 | 26.29071 | -150.87347 | 36241 ft | 447 kts | 240° |
| 2026-05-04 19:58 | 26.25737 | -150.93196 | 36239 ft | 447 kts | 240° |
| 2026-05-04 19:59 | 26.22402 | -150.99041 | 36238 ft | 447 kts | 240° |
| 2026-05-04 19:59 | 26.19066 | -151.04878 | 36243 ft | 447 kts | 240° |
| 2026-05-04 20:00 | 26.15726 | -151.10714 | 36234 ft | 447 kts | 240° |
| 2026-05-04 20:00 | 26.12381 | -151.16552 | 36220 ft | 446 kts | 240° |
| 2026-05-04 20:01 | 26.09042 | -151.22373 | 36235 ft | 446 kts | 240° |
| 2026-05-04 20:01 | 26.05705 | -151.28182 | 36236 ft | 446 kts | 240° |
| 2026-05-04 20:02 | 26.02364 | -151.33991 | 36241 ft | 446 kts | 240° |
| 2026-05-04 20:02 | 25.99022 | -151.39795 | 36236 ft | 446 kts | 240° |
| 2026-05-04 20:03 | 25.95678 | -151.45594 | 36234 ft | 446 kts | 240° |
| 2026-05-04 20:03 | 25.92355 | -151.51350 | 36223 ft | 445 kts | 240° |
| 2026-05-04 20:04 | 25.89009 | -151.57139 | 36231 ft | 445 kts | 240° |
| 2026-05-04 20:04 | 25.85660 | -151.62925 | 36230 ft | 445 kts | 240° |
| 2026-05-04 20:05 | 25.82310 | -151.68706 | 36231 ft | 445 kts | 240° |
| 2026-05-04 20:05 | 25.78956 | -151.74487 | 36228 ft | 445 kts | 240° |
| 2026-05-04 20:06 | 25.75600 | -151.80264 | 36227 ft | 445 kts | 240° |
| 2026-05-04 20:06 | 25.72240 | -151.86042 | 36220 ft | 445 kts | 240° |
| 2026-05-04 20:07 | 25.68904 | -151.91770 | 36230 ft | 445 kts | 240° |
| 2026-05-04 20:07 | 25.65546 | -151.97528 | 36226 ft | 444 kts | 240° |
| 2026-05-04 20:08 | 25.62187 | -152.03281 | 36224 ft | 444 kts | 240° |
| 2026-05-04 20:08 | 25.58829 | -152.09028 | 36226 ft | 444 kts | 240° |
| 2026-05-04 20:09 | 25.55470 | -152.14766 | 36227 ft | 444 kts | 240° |
| 2026-05-04 20:09 | 25.52107 | -152.20505 | 36225 ft | 444 kts | 240° |
| 2026-05-04 20:10 | 25.48745 | -152.26236 | 36225 ft | 444 kts | 240° |
| 2026-05-04 20:10 | 25.45374 | -152.31974 | 36223 ft | 444 kts | 240° |
| 2026-05-04 20:11 | 25.42005 | -152.37703 | 36223 ft | 444 kts | 240° |
| 2026-05-04 20:11 | 25.38655 | -152.43392 | 36223 ft | 444 kts | 240° |
| 2026-05-04 20:12 | 25.35282 | -152.49113 | 36219 ft | 444 kts | 240° |
| 2026-05-04 20:12 | 25.31905 | -152.54835 | 36210 ft | 444 kts | 240° |
| 2026-05-04 20:13 | 25.28531 | -152.60544 | 36220 ft | 444 kts | 240° |
| 2026-05-04 20:13 | 25.25156 | -152.66247 | 36217 ft | 443 kts | 240° |
| 2026-05-04 20:14 | 25.21781 | -152.71945 | 36220 ft | 443 kts | 240° |
| 2026-05-04 20:14 | 25.18399 | -152.77647 | 36220 ft | 443 kts | 240° |
| 2026-05-04 20:15 | 25.15040 | -152.83303 | 36220 ft | 443 kts | 240° |
| 2026-05-04 20:15 | 25.11656 | -152.88996 | 36207 ft | 443 kts | 240° |
| 2026-05-04 20:16 | 25.08270 | -152.94683 | 36220 ft | 443 kts | 240° |
| 2026-05-04 20:16 | 25.04889 | -153.00357 | 36215 ft | 443 kts | 240° |
| 2026-05-04 20:17 | 25.01505 | -153.06029 | 36216 ft | 443 kts | 240° |
| 2026-05-04 20:17 | 24.98116 | -153.11703 | 36218 ft | 443 kts | 240° |
| 2026-05-04 20:18 | 24.94730 | -153.17364 | 36218 ft | 442 kts | 240° |
| 2026-05-04 20:18 | 24.91339 | -153.23027 | 36217 ft | 442 kts | 240° |
| 2026-05-04 20:19 | 24.87971 | -153.28645 | 36209 ft | 442 kts | 240° |
| 2026-05-04 20:19 | 24.84583 | -153.34289 | 36213 ft | 441 kts | 240° |
| 2026-05-04 20:20 | 24.81195 | -153.39927 | 36214 ft | 441 kts | 240° |
| 2026-05-04 20:20 | 24.77806 | -153.45561 | 36219 ft | 441 kts | 240° |
| 2026-05-04 20:21 | 24.74414 | -153.51193 | 36209 ft | 441 kts | 240° |
| 2026-05-04 20:21 | 24.69328 | -153.59625 | 36216 ft | 441 kts | 239° |
| 2026-05-04 20:22 | 24.65936 | -153.65240 | 36205 ft | 440 kts | 239° |
| 2026-05-04 20:22 | 24.62544 | -153.70850 | 36209 ft | 440 kts | 239° |
| 2026-05-04 20:23 | 24.59150 | -153.76456 | 36207 ft | 440 kts | 239° |
| 2026-05-04 20:23 | 24.55756 | -153.82054 | 36208 ft | 440 kts | 239° |
| 2026-05-04 20:24 | 24.52381 | -153.87616 | 36204 ft | 440 kts | 239° |
| 2026-05-04 20:24 | 24.48981 | -153.93212 | 36208 ft | 440 kts | 239° |
| 2026-05-04 20:25 | 24.45579 | -153.98806 | 36198 ft | 440 kts | 239° |
| 2026-05-04 20:25 | 24.42181 | -154.04386 | 36202 ft | 440 kts | 239° |
| 2026-05-04 20:26 | 24.38781 | -154.09965 | 36204 ft | 440 kts | 239° |
| 2026-05-04 20:26 | 24.35381 | -154.15537 | 36204 ft | 440 kts | 239° |
| 2026-05-04 20:27 | 24.31978 | -154.21109 | 36204 ft | 440 kts | 239° |
| 2026-05-04 20:27 | 24.28571 | -154.26674 | 36202 ft | 440 kts | 239° |
| 2026-05-04 20:28 | 24.25154 | -154.32203 | 36183 ft | 440 kts | 239° |
| 2026-05-04 20:28 | 24.21696 | -154.37783 | 36197 ft | 439 kts | 239° |
| 2026-05-04 20:29 | 24.18288 | -154.43283 | 36196 ft | 439 kts | 239° |
| 2026-05-04 20:29 | 24.14859 | -154.48814 | 36198 ft | 439 kts | 239° |
| 2026-05-04 20:30 | 24.11430 | -154.54341 | 36207 ft | 439 kts | 239° |
| 2026-05-04 20:30 | 24.07993 | -154.59872 | 36205 ft | 439 kts | 239° |
| 2026-05-04 20:31 | 24.04559 | -154.65394 | 36194 ft | 439 kts | 239° |
| 2026-05-04 20:31 | 24.01122 | -154.70916 | 36198 ft | 439 kts | 239° |
| 2026-05-04 20:32 | 23.97687 | -154.76427 | 36196 ft | 438 kts | 239° |
| 2026-05-04 20:32 | 23.94247 | -154.81939 | 36198 ft | 438 kts | 239° |
| 2026-05-04 20:33 | 23.90810 | -154.87441 | 36195 ft | 438 kts | 239° |
| 2026-05-04 20:33 | 23.87390 | -154.92910 | 36199 ft | 438 kts | 239° |
| 2026-05-04 20:34 | 23.83949 | -154.98407 | 36193 ft | 438 kts | 239° |
| 2026-05-04 20:34 | 23.80505 | -155.03902 | 36184 ft | 438 kts | 239° |
| 2026-05-04 20:35 | 23.77058 | -155.09397 | 36191 ft | 438 kts | 239° |
| 2026-05-04 20:35 | 23.73608 | -155.14889 | 36189 ft | 439 kts | 239° |
| 2026-05-04 20:36 | 23.70147 | -155.20395 | 36197 ft | 439 kts | 239° |
| 2026-05-04 20:36 | 23.66684 | -155.25896 | 36191 ft | 440 kts | 239° |
| 2026-05-04 20:37 | 23.63218 | -155.31397 | 36191 ft | 440 kts | 239° |
| 2026-05-04 20:37 | 23.59751 | -155.36894 | 36188 ft | 440 kts | 239° |
| 2026-05-04 20:38 | 23.56307 | -155.42351 | 36171 ft | 440 kts | 239° |
| 2026-05-04 20:38 | 23.52716 | -155.47765 | 36179 ft | 444 kts | 230° |
| 2026-05-04 20:39 | 23.50327 | -155.49907 | 36175 ft | 448 kts | 217° |
| 2026-05-04 20:39 | 23.47684 | -155.51731 | 36192 ft | 449 kts | 217° |
| 2026-05-04 20:39 | 23.42415 | -155.55429 | 36189 ft | 451 kts | 218° |
| 2026-05-04 20:40 | 23.37157 | -155.59192 | 36189 ft | 453 kts | 218° |
| 2026-05-04 20:40 | 23.31898 | -155.62983 | 36188 ft | 454 kts | 218° |
| 2026-05-04 20:41 | 23.26631 | -155.66780 | 36185 ft | 454 kts | 218° |
| 2026-05-04 20:41 | 23.21363 | -155.70574 | 36185 ft | 454 kts | 218° |
| 2026-05-04 20:42 | 23.16096 | -155.74361 | 36185 ft | 453 kts | 218° |
| 2026-05-04 20:42 | 23.10837 | -155.78139 | 36182 ft | 452 kts | 218° |
| 2026-05-04 20:43 | 23.06478 | -155.81267 | 36179 ft | 452 kts | 218° |
| 2026-05-04 20:43 | 23.00386 | -155.85636 | 36173 ft | 451 kts | 218° |
| 2026-05-04 20:44 | 22.95152 | -155.89385 | 36181 ft | 451 kts | 218° |
| 2026-05-04 20:44 | 22.90767 | -155.92524 | 36181 ft | 451 kts | 218° |
| 2026-05-04 20:45 | 22.85535 | -155.96266 | 36180 ft | 451 kts | 218° |
| 2026-05-04 20:45 | 22.80320 | -155.99992 | 36177 ft | 451 kts | 218° |
| 2026-05-04 20:46 | 22.75074 | -156.03737 | 36171 ft | 451 kts | 218° |
| 2026-05-04 20:46 | 22.69824 | -156.07481 | 36174 ft | 452 kts | 218° |
| 2026-05-04 20:47 | 22.64567 | -156.11226 | 36175 ft | 452 kts | 218° |
| 2026-05-04 20:47 | 22.59304 | -156.14972 | 36170 ft | 453 kts | 218° |
| 2026-05-04 20:48 | 22.54038 | -156.18717 | 36170 ft | 453 kts | 218° |
| 2026-05-04 20:48 | 22.48763 | -156.22466 | 36161 ft | 453 kts | 217° |
| 2026-05-04 20:49 | 22.43522 | -156.26186 | 36173 ft | 453 kts | 217° |
| 2026-05-04 20:49 | 22.38251 | -156.29926 | 36167 ft | 453 kts | 217° |
| 2026-05-04 20:50 | 22.32983 | -156.33673 | 36169 ft | 453 kts | 219° |
| 2026-05-04 20:50 | 22.30645 | -156.35896 | 36151 ft | 442 kts | 233° |
| 2026-05-04 20:50 | 22.28709 | -156.38472 | 36175 ft | 442 kts | 234° |
| 2026-05-04 20:51 | 22.24857 | -156.43658 | 36163 ft | 444 kts | 233° |
| 2026-05-04 20:51 | 22.20937 | -156.48831 | 36174 ft | 446 kts | 233° |
| 2026-05-04 20:52 | 22.16966 | -156.54001 | 36145 ft | 449 kts | 233° |
| 2026-05-04 20:52 | 22.14940 | -156.56632 | 35373 ft | 461 kts | 233° |
| 2026-05-04 20:52 | 22.12882 | -156.59301 | 34649 ft | 462 kts | 232° |
| 2026-05-04 20:53 | 22.10819 | -156.61973 | 33791 ft | 464 kts | 232° |
| 2026-05-04 20:53 | 22.08772 | -156.64623 | 32810 ft | 467 kts | 232° |
| 2026-05-04 20:53 | 22.06691 | -156.67318 | 32022 ft | 467 kts | 232° |
| 2026-05-04 20:53 | 22.04625 | -156.69990 | 31443 ft | 462 kts | 232° |
| 2026-05-04 20:54 | 22.02575 | -156.72642 | 30852 ft | 459 kts | 232° |
| 2026-05-04 20:54 | 22.00538 | -156.75277 | 30265 ft | 456 kts | 232° |
| 2026-05-04 20:54 | 21.98515 | -156.77893 | 29598 ft | 453 kts | 232° |
| 2026-05-04 20:54 | 21.96510 | -156.80484 | 28987 ft | 449 kts | 232° |
| 2026-05-04 20:55 | 21.94519 | -156.83055 | 28398 ft | 444 kts | 232° |
| 2026-05-04 20:55 | 21.92549 | -156.85599 | 27827 ft | 440 kts | 232° |
| 2026-05-04 20:55 | 21.90596 | -156.88121 | 27262 ft | 437 kts | 232° |
| 2026-05-04 20:55 | 21.88657 | -156.90623 | 26713 ft | 433 kts | 232° |
| 2026-05-04 20:56 | 21.86751 | -156.93082 | 26161 ft | 431 kts | 232° |
| 2026-05-04 20:56 | 21.84836 | -156.95548 | 25627 ft | 428 kts | 232° |
| 2026-05-04 20:56 | 21.82930 | -156.98005 | 25077 ft | 426 kts | 232° |
| 2026-05-04 20:56 | 21.81033 | -157.00448 | 24515 ft | 425 kts | 232° |
| 2026-05-04 20:57 | 21.79138 | -157.02891 | 23908 ft | 425 kts | 232° |
| 2026-05-04 20:57 | 21.77247 | -157.05328 | 23275 ft | 424 kts | 232° |
| 2026-05-04 20:57 | 21.75360 | -157.07757 | 22687 ft | 421 kts | 232° |
| 2026-05-04 20:57 | 21.73489 | -157.10167 | 22133 ft | 418 kts | 232° |
| 2026-05-04 20:58 | 21.71632 | -157.12555 | 21605 ft | 414 kts | 232° |
| 2026-05-04 20:58 | 21.69792 | -157.14922 | 21082 ft | 411 kts | 232° |
| 2026-05-04 20:58 | 21.67962 | -157.17274 | 20558 ft | 408 kts | 232° |
| 2026-05-04 20:58 | 21.66148 | -157.19607 | 20036 ft | 406 kts | 232° |
| 2026-05-04 20:59 | 21.64342 | -157.21929 | 19512 ft | 404 kts | 232° |
| 2026-05-04 20:59 | 21.62545 | -157.24239 | 18992 ft | 402 kts | 231° |
| 2026-05-04 20:59 | 21.60754 | -157.26538 | 18477 ft | 400 kts | 231° |
| 2026-05-04 20:59 | 21.58971 | -157.28826 | 17797 ft | 400 kts | 230° |
| 2026-05-04 21:00 | 21.57184 | -157.31116 | 17225 ft | 398 kts | 231° |
| 2026-05-04 21:00 | 21.55413 | -157.33387 | 16690 ft | 395 kts | 231° |
| 2026-05-04 21:00 | 21.53657 | -157.35640 | 16178 ft | 391 kts | 230° |
| 2026-05-04 21:00 | 21.51939 | -157.37840 | 15670 ft | 388 kts | 231° |
| 2026-05-04 21:01 | 21.50215 | -157.40048 | 15178 ft | 384 kts | 230° |
| 2026-05-04 21:01 | 21.48502 | -157.42242 | 14656 ft | 382 kts | 230° |
| 2026-05-04 21:01 | 21.46778 | -157.44447 | 14143 ft | 379 kts | 230° |
| 2026-05-04 21:01 | 21.45110 | -157.46582 | 13610 ft | 377 kts | 230° |
| 2026-05-04 21:02 | 21.43434 | -157.48725 | 13087 ft | 373 kts | 230° |
| 2026-05-04 21:02 | 21.41766 | -157.50855 | 12592 ft | 370 kts | 230° |
| 2026-05-04 21:02 | 21.40115 | -157.52964 | 12108 ft | 367 kts | 230° |
| 2026-05-04 21:02 | 21.38478 | -157.55053 | 11625 ft | 364 kts | 230° |
| 2026-05-04 21:03 | 21.36854 | -157.57125 | 11156 ft | 362 kts | 230° |
| 2026-05-04 21:03 | 21.35251 | -157.59170 | 10904 ft | 352 kts | 230° |
| 2026-05-04 21:03 | 21.33696 | -157.61152 | 10728 ft | 342 kts | 230° |
| 2026-05-04 21:03 | 21.32190 | -157.63071 | 10582 ft | 331 kts | 230° |
| 2026-05-04 21:04 | 21.30740 | -157.64917 | 10413 ft | 311 kts | 230° |
| 2026-05-04 21:04 | 21.29397 | -157.66625 | 10258 ft | 293 kts | 230° |
| 2026-05-04 21:04 | 21.28088 | -157.68291 | 9944 ft | 291 kts | 230° |
| 2026-05-04 21:04 | 21.26857 | -157.69995 | 9541 ft | 288 kts | 241° |
| 2026-05-04 21:05 | 21.26304 | -157.72050 | 9045 ft | 288 kts | 263° |
| 2026-05-04 21:05 | 21.26130 | -157.74185 | 8656 ft | 288 kts | 264° |
| 2026-05-04 21:05 | 21.25943 | -157.76314 | 8363 ft | 285 kts | 263° |
| 2026-05-04 21:05 | 21.25753 | -157.78419 | 8087 ft | 283 kts | 263° |
| 2026-05-04 21:06 | 21.25565 | -157.80490 | 7767 ft | 282 kts | 263° |
| 2026-05-04 21:06 | 21.25371 | -157.82603 | 7464 ft | 281 kts | 263° |
| 2026-05-04 21:06 | 21.25183 | -157.84670 | 7262 ft | 277 kts | 263° |
| 2026-05-04 21:06 | 21.24995 | -157.86715 | 7073 ft | 275 kts | 262° |
| 2026-05-04 21:07 | 21.24807 | -157.88758 | 6894 ft | 275 kts | 262° |
| 2026-05-04 21:07 | 21.24622 | -157.90750 | 6713 ft | 269 kts | 262° |
| 2026-05-04 21:07 | 21.24440 | -157.92710 | 6576 ft | 260 kts | 263° |
| 2026-05-04 21:07 | 21.24264 | -157.94605 | 6452 ft | 251 kts | 262° |
| 2026-05-04 21:08 | 21.24093 | -157.96428 | 6337 ft | 241 kts | 263° |
| 2026-05-04 21:08 | 21.23930 | -157.98186 | 6148 ft | 237 kts | 262° |
| 2026-05-04 21:08 | 21.23782 | -157.99935 | 6066 ft | 236 kts | 265° |
| 2026-05-04 21:08 | 21.23759 | -158.01687 | 5992 ft | 235 kts | 269° |
| 2026-05-04 21:09 | 21.23772 | -158.03456 | 5770 ft | 237 kts | 269° |
| 2026-05-04 21:09 | 21.23785 | -158.05215 | 5636 ft | 235 kts | 269° |
| 2026-05-04 21:09 | 21.23795 | -158.06958 | 5504 ft | 233 kts | 269° |
| 2026-05-04 21:09 | 21.23801 | -158.08699 | 5392 ft | 234 kts | 269° |
| 2026-05-04 21:10 | 21.23805 | -158.10447 | 5283 ft | 235 kts | 269° |
| 2026-05-04 21:10 | 21.23807 | -158.12204 | 5163 ft | 236 kts | 269° |
| 2026-05-04 21:10 | 21.23808 | -158.13970 | 5041 ft | 237 kts | 270° |
| 2026-05-04 21:10 | 21.23808 | -158.15714 | 4930 ft | 238 kts | 269° |
| 2026-05-04 21:11 | 21.23807 | -158.17508 | 4799 ft | 237 kts | 269° |
| 2026-05-04 21:11 | 21.23827 | -158.19259 | 4662 ft | 232 kts | 277° |
| 2026-05-04 21:11 | 21.24417 | -158.20818 | 4530 ft | 227 kts | 313° |
| 2026-05-04 21:11 | 21.25709 | -158.21759 | 4458 ft | 229 kts | 345° |
| 2026-05-04 21:12 | 21.27280 | -158.22040 | 4370 ft | 230 kts | 0° |
| 2026-05-04 21:12 | 21.28864 | -158.22055 | 4236 ft | 230 kts | 2° |
| 2026-05-04 21:12 | 21.30424 | -158.21912 | 4113 ft | 220 kts | 22° |
| 2026-05-04 21:12 | 21.31643 | -158.21017 | 4043 ft | 214 kts | 57° |
| 2026-05-04 21:13 | 21.32147 | -158.19539 | 4034 ft | 213 kts | 83° |
| 2026-05-04 21:13 | 21.32341 | -158.17965 | 4013 ft | 212 kts | 83° |
| 2026-05-04 21:13 | 21.32476 | -158.16411 | 3903 ft | 210 kts | 87° |
| 2026-05-04 21:13 | 21.32517 | -158.14860 | 3689 ft | 207 kts | 89° |
| 2026-05-04 21:14 | 21.32523 | -158.13320 | 3415 ft | 204 kts | 89° |
| 2026-05-04 21:14 | 21.32523 | -158.11814 | 3135 ft | 198 kts | 88° |
| 2026-05-04 21:14 | 21.32524 | -158.10391 | 2886 ft | 184 kts | 88° |
| 2026-05-04 21:14 | 21.32521 | -158.09073 | 2641 ft | 169 kts | 88° |
| 2026-05-04 21:15 | 21.32523 | -158.07842 | 2431 ft | 162 kts | 87° |
| 2026-05-04 21:15 | 21.32523 | -158.06681 | 2264 ft | 152 kts | 87° |
| 2026-05-04 21:15 | 21.32525 | -158.05544 | 2038 ft | 151 kts | 85° |
| 2026-05-04 21:15 | 21.32523 | -158.04424 | 1848 ft | 152 kts | 86° |
| 2026-05-04 21:16 | 21.32522 | -158.03278 | 1627 ft | 154 kts | 87° |
| 2026-05-04 21:16 | 21.32523 | -158.02148 | 1442 ft | 150 kts | 84° |
| 2026-05-04 21:16 | 21.32522 | -158.01066 | 1253 ft | 144 kts | 84° |
| 2026-05-04 21:16 | 21.32524 | -158.00006 | 1060 ft | 141 kts | 87° |
| 2026-05-04 21:17 | 21.32519 | -157.99000 | 868 ft | 132 kts | 86° |
| 2026-05-04 21:17 | 21.32532 | -157.98017 | 708 ft | 140 kts | 85° |
| 2026-05-04 21:17 | 21.32524 | -157.96946 | 523 ft | 143 kts | 85° |
| 2026-05-04 21:17 | 21.32516 | -157.95845 | 369 ft | 154 kts | 83° |
| 2026-05-04 21:18 | 21.32528 | -157.94701 | 144 ft | 149 kts | 86° |
| 2026-05-04 21:18 | 21.32520 | -157.93642 | 31 ft | 132 kts | 83° |
| 2026-05-04 21:18 | 21.32526 | -157.92857 | 29 ft | 78 kts | 90° |
| 2026-05-04 21:18 | 21.32526 | -157.92495 | 29 ft | 26 kts | 90° |
| 2026-05-04 21:19 | 21.32531 | -157.92332 | 29 ft | 19 kts | 77° |
| 2026-05-04 21:19 | 21.32590 | -157.92208 | 29 ft | 19 kts | 60° |
| 2026-05-04 21:19 | 21.32644 | -157.92106 | 29 ft | 14 kts | 60° |
| 2026-05-04 21:19 | 21.32683 | -157.92035 | 29 ft | 9 kts | 60° |
| 2026-05-04 21:20 | 21.32714 | -157.91976 | 29 ft | 9 kts | 59° |
| 2026-05-04 21:20 | 21.32746 | -157.91921 | 29 ft | 8 kts | 54° |
| 2026-05-04 21:20 | 21.32772 | -157.91886 | 29 ft | 6 kts | 49° |
| 2026-05-04 21:20 | 21.32803 | -157.91860 | 29 ft | 6 kts | 25° |
| 2026-05-04 21:21 | 21.32843 | -157.91850 | 29 ft | 6 kts | 12° |
| 2026-05-04 21:21 | 21.32883 | -157.91842 | 29 ft | 6 kts | 11° |
| 2026-05-04 21:21 | 21.32913 | -157.91815 | 29 ft | 6 kts | 63° |
| 2026-05-04 21:21 | 21.32923 | -157.91785 | 29 ft | 3 kts | 72° |
| 2026-05-04 21:22 | 21.32928 | -157.91766 | 29 ft | 2 kts | 72° |
| 2026-05-04 21:22 | 21.32931 | -157.91757 | 29 ft | 0 kts | 72° |